sensor_id;sensor_type;location;lat;lon;timestamp;P1;P2;P0
69123;PMS5003;56232;53.384;-2.732;2022-12-10T00:00:07;12;12;
69123;PMS5003;56232;53.384;-2.732;2022-12-10T00:02:32;16;15;
69123;PMS5003;56232;53.384;-2.732;2022-12-10T00:04:58;19;19;
69123;PMS5003;56232;53.384;-2.732;2022-12-10T00:07:24;13;13;
69123;PMS5003;56232;53.384;-2.732;2022-12-10T00:09:50;13;12;
69123;PMS5003;56232;53.384;-2.732;2022-12-10T00:12:15;13;12;
69123;PMS5003;56232;53.384;-2.732;2022-12-10T00:14:40;13;12;
69123;PMS5003;56232;53.384;-2.732;2022-12-10T00:17:06;14;14;
69123;PMS5003;56232;53.384;-2.732;2022-12-10T00:19:32;15;13;
69123;PMS5003;56232;53.384;-2.732;2022-12-10T00:21:57;15;14;
69123;PMS5003;56232;53.384;-2.732;2022-12-10T00:24:23;16;14;
69123;PMS5003;56232;53.384;-2.732;2022-12-10T00:26:48;14;14;
69123;PMS5003;56232;53.384;-2.732;2022-12-10T00:29:14;21;20;
69123;PMS5003;56232;53.384;-2.732;2022-12-10T00:31:40;20;18;
69123;PMS5003;56232;53.384;-2.732;2022-12-10T00:34:05;23;21;
69123;PMS5003;56232;53.384;-2.732;2022-12-10T00:36:31;33;25;
69123;PMS5003;56232;53.384;-2.732;2022-12-10T00:38:55;29;27;
69123;PMS5003;56232;53.384;-2.732;2022-12-10T00:41:21;18;15;
69123;PMS5003;56232;53.384;-2.732;2022-12-10T00:43:46;21;19;
69123;PMS5003;56232;53.384;-2.732;2022-12-10T00:46:12;20;20;
69123;PMS5003;56232;53.384;-2.732;2022-12-10T00:48:37;23;18;
69123;PMS5003;56232;53.384;-2.732;2022-12-10T00:51:04;20;18;
69123;PMS5003;56232;53.384;-2.732;2022-12-10T00:53:29;21;20;
69123;PMS5003;56232;53.384;-2.732;2022-12-10T00:55:55;20;18;
69123;PMS5003;56232;53.384;-2.732;2022-12-10T00:58:21;19;18;
69123;PMS5003;56232;53.384;-2.732;2022-12-10T01:00:46;22;22;
69123;PMS5003;56232;53.384;-2.732;2022-12-10T01:03:12;23;21;
69123;PMS5003;56232;53.384;-2.732;2022-12-10T01:05:37;21;21;
69123;PMS5003;56232;53.384;-2.732;2022-12-10T01:08:02;25;22;
69123;PMS5003;56232;53.384;-2.732;2022-12-10T01:10:27;19;19;
69123;PMS5003;56232;53.384;-2.732;2022-12-10T01:12:53;20;17;
69123;PMS5003;56232;53.384;-2.732;2022-12-10T01:15:18;20;20;
69123;PMS5003;56232;53.384;-2.732;2022-12-10T01:17:44;18;18;
69123;PMS5003;56232;53.384;-2.732;2022-12-10T01:20:09;18;18;
69123;PMS5003;56232;53.384;-2.732;2022-12-10T01:22:34;19;19;
69123;PMS5003;56232;53.384;-2.732;2022-12-10T01:24:59;21;20;
69123;PMS5003;56232;53.384;-2.732;2022-12-10T01:27:25;23;21;
69123;PMS5003;56232;53.384;-2.732;2022-12-10T01:29:50;20;20;
69123;PMS5003;56232;53.384;-2.732;2022-12-10T01:32:16;25;24;
69123;PMS5003;56232;53.384;-2.732;2022-12-10T01:34:42;31;27;
69123;PMS5003;56232;53.384;-2.732;2022-12-10T01:37:07;34;31;
69123;PMS5003;56232;53.384;-2.732;2022-12-10T01:39:32;31;29;
69123;PMS5003;56232;53.384;-2.732;2022-12-10T01:41:58;38;34;
69123;PMS5003;56232;53.384;-2.732;2022-12-10T01:46:49;45;43;
69123;PMS5003;56232;53.384;-2.732;2022-12-10T01:49:15;41;40;
69123;PMS5003;56232;53.384;-2.732;2022-12-10T01:51:40;43;41;
69123;PMS5003;56232;53.384;-2.732;2022-12-10T01:54:06;41;41;
69123;PMS5003;56232;53.384;-2.732;2022-12-10T01:56:31;43;41;
69123;PMS5003;56232;53.384;-2.732;2022-12-10T01:58:56;45;44;
69123;PMS5003;56232;53.384;-2.732;2022-12-10T02:01:25;42;41;
69123;PMS5003;56232;53.384;-2.732;2022-12-10T02:03:52;51;46;
69123;PMS5003;56232;53.384;-2.732;2022-12-10T02:06:17;38;37;
69123;PMS5003;56232;53.384;-2.732;2022-12-10T02:08:40;38;33;
69123;PMS5003;56232;53.384;-2.732;2022-12-10T02:11:06;34;31;
69123;PMS5003;56232;53.384;-2.732;2022-12-10T02:13:31;23;23;
69123;PMS5003;56232;53.384;-2.732;2022-12-10T02:15:57;19;18;
69123;PMS5003;56232;53.384;-2.732;2022-12-10T02:18:21;14;14;
69123;PMS5003;56232;53.384;-2.732;2022-12-10T02:20:47;9;9;
69123;PMS5003;56232;53.384;-2.732;2022-12-10T02:23:13;7;6;
69123;PMS5003;56232;53.384;-2.732;2022-12-10T02:25:37;4;4;
69123;PMS5003;56232;53.384;-2.732;2022-12-10T02:28:05;3;3;
69123;PMS5003;56232;53.384;-2.732;2022-12-10T02:30:27;3;3;
69123;PMS5003;56232;53.384;-2.732;2022-12-10T02:32:53;2;2;
69123;PMS5003;56232;53.384;-2.732;2022-12-10T02:35:19;1;1;
69123;PMS5003;56232;53.384;-2.732;2022-12-10T02:37:45;1;1;
69123;PMS5003;56232;53.384;-2.732;2022-12-10T02:40:11;2;1;
69123;PMS5003;56232;53.384;-2.732;2022-12-10T02:42:37;1;1;
69123;PMS5003;56232;53.384;-2.732;2022-12-10T02:45:02;2;2;
69123;PMS5003;56232;53.384;-2.732;2022-12-10T02:47:27;1;0;
69123;PMS5003;56232;53.384;-2.732;2022-12-10T02:49:53;1;1;
69123;PMS5003;56232;53.384;-2.732;2022-12-10T02:52:19;1;1;
69123;PMS5003;56232;53.384;-2.732;2022-12-10T02:54:45;0;0;
69123;PMS5003;56232;53.384;-2.732;2022-12-10T02:57:14;2;2;
69123;PMS5003;56232;53.384;-2.732;2022-12-10T02:59:37;2;2;
69123;PMS5003;56232;53.384;-2.732;2022-12-10T03:02:09;1;1;
69123;PMS5003;56232;53.384;-2.732;2022-12-10T03:04:29;1;1;
69123;PMS5003;56232;53.384;-2.732;2022-12-10T03:06:55;1;1;
69123;PMS5003;56232;53.384;-2.732;2022-12-10T03:09:21;0;0;
69123;PMS5003;56232;53.384;-2.732;2022-12-10T03:11:45;2;1;
69123;PMS5003;56232;53.384;-2.732;2022-12-10T03:14:12;1;1;
69123;PMS5003;56232;53.384;-2.732;2022-12-10T03:16:38;1;1;
69123;PMS5003;56232;53.384;-2.732;2022-12-10T03:19:03;1;1;
69123;PMS5003;56232;53.384;-2.732;2022-12-10T03:21:27;1;1;
69123;PMS5003;56232;53.384;-2.732;2022-12-10T03:23:53;0;0;
69123;PMS5003;56232;53.384;-2.732;2022-12-10T03:26:18;1;1;
69123;PMS5003;56232;53.384;-2.732;2022-12-10T03:28:46;0;0;
69123;PMS5003;56232;53.384;-2.732;2022-12-10T03:31:10;1;1;
69123;PMS5003;56232;53.384;-2.732;2022-12-10T03:33:35;1;0;
69123;PMS5003;56232;53.384;-2.732;2022-12-10T03:36:01;1;1;
69123;PMS5003;56232;53.384;-2.732;2022-12-10T03:38:26;0;0;
69123;PMS5003;56232;53.384;-2.732;2022-12-10T03:40:52;1;1;
69123;PMS5003;56232;53.384;-2.732;2022-12-10T03:43:18;2;2;
69123;PMS5003;56232;53.384;-2.732;2022-12-10T03:45:44;1;1;
69123;PMS5003;56232;53.384;-2.732;2022-12-10T03:48:09;1;1;
69123;PMS5003;56232;53.384;-2.732;2022-12-10T03:50:35;1;1;
69123;PMS5003;56232;53.384;-2.732;2022-12-10T03:53:01;0;0;
69123;PMS5003;56232;53.384;-2.732;2022-12-10T03:55:27;0;0;
69123;PMS5003;56232;53.384;-2.732;2022-12-10T03:57:53;2;0;
69123;PMS5003;56232;53.384;-2.732;2022-12-10T04:00:19;1;1;
69123;PMS5003;56232;53.384;-2.732;2022-12-10T04:02:45;1;1;
69123;PMS5003;56232;53.384;-2.732;2022-12-10T04:05:09;2;2;
69123;PMS5003;56232;53.384;-2.732;2022-12-10T04:07:35;2;2;
69123;PMS5003;56232;53.384;-2.732;2022-12-10T04:10:00;3;3;
69123;PMS5003;56232;53.384;-2.732;2022-12-10T04:12:26;2;2;
69123;PMS5003;56232;53.384;-2.732;2022-12-10T04:14:51;1;1;
69123;PMS5003;56232;53.384;-2.732;2022-12-10T04:17:17;2;2;
69123;PMS5003;56232;53.384;-2.732;2022-12-10T04:19:42;2;1;
69123;PMS5003;56232;53.384;-2.732;2022-12-10T04:22:08;2;2;
69123;PMS5003;56232;53.384;-2.732;2022-12-10T04:24:33;3;3;
69123;PMS5003;56232;53.384;-2.732;2022-12-10T04:26:59;2;2;
69123;PMS5003;56232;53.384;-2.732;2022-12-10T04:29:24;3;3;
69123;PMS5003;56232;53.384;-2.732;2022-12-10T04:31:49;2;2;
69123;PMS5003;56232;53.384;-2.732;2022-12-10T04:34:14;2;2;
69123;PMS5003;56232;53.384;-2.732;2022-12-10T04:36:40;3;2;
69123;PMS5003;56232;53.384;-2.732;2022-12-10T04:39:05;2;2;
69123;PMS5003;56232;53.384;-2.732;2022-12-10T04:41:31;3;3;
69123;PMS5003;56232;53.384;-2.732;2022-12-10T04:43:56;2;2;
69123;PMS5003;56232;53.384;-2.732;2022-12-10T04:46:22;3;3;
69123;PMS5003;56232;53.384;-2.732;2022-12-10T04:48:47;3;2;
69123;PMS5003;56232;53.384;-2.732;2022-12-10T04:51:12;3;3;
69123;PMS5003;56232;53.384;-2.732;2022-12-10T04:53:37;3;3;
69123;PMS5003;56232;53.384;-2.732;2022-12-10T04:56:04;3;2;
69123;PMS5003;56232;53.384;-2.732;2022-12-10T04:58:28;1;1;
69123;PMS5003;56232;53.384;-2.732;2022-12-10T05:00:54;2;2;
69123;PMS5003;56232;53.384;-2.732;2022-12-10T05:03:19;1;1;
69123;PMS5003;56232;53.384;-2.732;2022-12-10T05:05:45;1;1;
69123;PMS5003;56232;53.384;-2.732;2022-12-10T05:08:10;1;1;
69123;PMS5003;56232;53.384;-2.732;2022-12-10T05:10:36;1;1;
69123;PMS5003;56232;53.384;-2.732;2022-12-10T05:13:01;1;1;
69123;PMS5003;56232;53.384;-2.732;2022-12-10T05:15:26;1;1;
69123;PMS5003;56232;53.384;-2.732;2022-12-10T05:17:51;3;2;
69123;PMS5003;56232;53.384;-2.732;2022-12-10T05:20:17;2;1;
69123;PMS5003;56232;53.384;-2.732;2022-12-10T05:22:43;1;1;
69123;PMS5003;56232;53.384;-2.732;2022-12-10T05:25:08;2;1;
69123;PMS5003;56232;53.384;-2.732;2022-12-10T05:27:33;1;1;
69123;PMS5003;56232;53.384;-2.732;2022-12-10T05:29:59;2;1;
69123;PMS5003;56232;53.384;-2.732;2022-12-10T05:32:24;1;1;
69123;PMS5003;56232;53.384;-2.732;2022-12-10T05:34:50;1;1;
69123;PMS5003;56232;53.384;-2.732;2022-12-10T05:37:15;2;1;
69123;PMS5003;56232;53.384;-2.732;2022-12-10T05:39:41;3;2;
69123;PMS5003;56232;53.384;-2.732;2022-12-10T05:42:06;1;1;
69123;PMS5003;56232;53.384;-2.732;2022-12-10T05:44:31;1;1;
69123;PMS5003;56232;53.384;-2.732;2022-12-10T05:46:56;1;1;
69123;PMS5003;56232;53.384;-2.732;2022-12-10T05:49:22;1;1;
69123;PMS5003;56232;53.384;-2.732;2022-12-10T05:51:47;1;1;
69123;PMS5003;56232;53.384;-2.732;2022-12-10T05:54:13;1;1;
69123;PMS5003;56232;53.384;-2.732;2022-12-10T05:56:38;3;2;
69123;PMS5003;56232;53.384;-2.732;2022-12-10T05:59:04;2;2;
69123;PMS5003;56232;53.384;-2.732;2022-12-10T06:01:29;1;1;
69123;PMS5003;56232;53.384;-2.732;2022-12-10T06:03:56;2;2;
69123;PMS5003;56232;53.384;-2.732;2022-12-10T06:06:20;2;2;
69123;PMS5003;56232;53.384;-2.732;2022-12-10T06:08:45;2;2;
69123;PMS5003;56232;53.384;-2.732;2022-12-10T06:11:10;1;1;
69123;PMS5003;56232;53.384;-2.732;2022-12-10T06:13:37;2;2;
69123;PMS5003;56232;53.384;-2.732;2022-12-10T06:16:03;4;4;
69123;PMS5003;56232;53.384;-2.732;2022-12-10T06:18:27;4;4;
69123;PMS5003;56232;53.384;-2.732;2022-12-10T06:20:52;3;2;
69123;PMS5003;56232;53.384;-2.732;2022-12-10T06:23:18;2;2;
69123;PMS5003;56232;53.384;-2.732;2022-12-10T06:25:43;3;2;
69123;PMS5003;56232;53.384;-2.732;2022-12-10T06:28:09;3;3;
69123;PMS5003;56232;53.384;-2.732;2022-12-10T06:30:34;3;3;
69123;PMS5003;56232;53.384;-2.732;2022-12-10T06:33:00;3;3;
69123;PMS5003;56232;53.384;-2.732;2022-12-10T06:35:25;4;3;
69123;PMS5003;56232;53.384;-2.732;2022-12-10T06:37:50;5;4;
69123;PMS5003;56232;53.384;-2.732;2022-12-10T06:40:16;10;8;
69123;PMS5003;56232;53.384;-2.732;2022-12-10T06:42:41;10;10;
69123;PMS5003;56232;53.384;-2.732;2022-12-10T06:45:07;12;11;
69123;PMS5003;56232;53.384;-2.732;2022-12-10T06:47:32;12;12;
69123;PMS5003;56232;53.384;-2.732;2022-12-10T06:49:58;12;12;
69123;PMS5003;56232;53.384;-2.732;2022-12-10T06:52:24;13;13;
69123;PMS5003;56232;53.384;-2.732;2022-12-10T06:54:49;12;12;
69123;PMS5003;56232;53.384;-2.732;2022-12-10T06:57:15;13;13;
69123;PMS5003;56232;53.384;-2.732;2022-12-10T06:59:40;14;14;
69123;PMS5003;56232;53.384;-2.732;2022-12-10T07:02:07;15;15;
69123;PMS5003;56232;53.384;-2.732;2022-12-10T07:04:32;15;15;
69123;PMS5003;56232;53.384;-2.732;2022-12-10T07:06:58;12;12;
69123;PMS5003;56232;53.384;-2.732;2022-12-10T07:09:23;13;13;
69123;PMS5003;56232;53.384;-2.732;2022-12-10T07:11:48;15;14;
69123;PMS5003;56232;53.384;-2.732;2022-12-10T07:14:14;13;11;
69123;PMS5003;56232;53.384;-2.732;2022-12-10T07:16:39;13;13;
69123;PMS5003;56232;53.384;-2.732;2022-12-10T07:19:04;13;13;
69123;PMS5003;56232;53.384;-2.732;2022-12-10T07:21:31;12;11;
69123;PMS5003;56232;53.384;-2.732;2022-12-10T07:23:57;12;11;
69123;PMS5003;56232;53.384;-2.732;2022-12-10T07:26:21;13;12;
69123;PMS5003;56232;53.384;-2.732;2022-12-10T07:28:46;14;14;
69123;PMS5003;56232;53.384;-2.732;2022-12-10T07:31:11;13;13;
69123;PMS5003;56232;53.384;-2.732;2022-12-10T07:33:37;15;14;
69123;PMS5003;56232;53.384;-2.732;2022-12-10T07:36:03;15;15;
69123;PMS5003;56232;53.384;-2.732;2022-12-10T07:38:28;14;13;
69123;PMS5003;56232;53.384;-2.732;2022-12-10T07:40:53;12;12;
69123;PMS5003;56232;53.384;-2.732;2022-12-10T07:43:19;14;13;
69123;PMS5003;56232;53.384;-2.732;2022-12-10T07:45:44;17;16;
69123;PMS5003;56232;53.384;-2.732;2022-12-10T07:48:10;11;11;
69123;PMS5003;56232;53.384;-2.732;2022-12-10T07:50:35;18;17;
69123;PMS5003;56232;53.384;-2.732;2022-12-10T07:53:01;13;13;
69123;PMS5003;56232;53.384;-2.732;2022-12-10T07:55:26;14;13;
69123;PMS5003;56232;53.384;-2.732;2022-12-10T07:57:52;14;14;
69123;PMS5003;56232;53.384;-2.732;2022-12-10T08:00:18;14;13;
69123;PMS5003;56232;53.384;-2.732;2022-12-10T08:02:44;14;13;
69123;PMS5003;56232;53.384;-2.732;2022-12-10T08:05:09;14;13;
69123;PMS5003;56232;53.384;-2.732;2022-12-10T08:07:34;14;13;
69123;PMS5003;56232;53.384;-2.732;2022-12-10T08:10:00;14;13;
69123;PMS5003;56232;53.384;-2.732;2022-12-10T08:12:26;14;14;
69123;PMS5003;56232;53.384;-2.732;2022-12-10T08:14:51;20;19;
69123;PMS5003;56232;53.384;-2.732;2022-12-10T08:17:17;15;14;
69123;PMS5003;56232;53.384;-2.732;2022-12-10T08:19:43;11;11;
69123;PMS5003;56232;53.384;-2.732;2022-12-10T08:22:08;14;14;
69123;PMS5003;56232;53.384;-2.732;2022-12-10T08:24:33;13;13;
69123;PMS5003;56232;53.384;-2.732;2022-12-10T08:26:58;16;11;
69123;PMS5003;56232;53.384;-2.732;2022-12-10T08:29:24;13;13;
69123;PMS5003;56232;53.384;-2.732;2022-12-10T08:31:50;10;10;
69123;PMS5003;56232;53.384;-2.732;2022-12-10T08:34:16;11;11;
69123;PMS5003;56232;53.384;-2.732;2022-12-10T08:36:41;16;15;
69123;PMS5003;56232;53.384;-2.732;2022-12-10T08:39:06;14;14;
69123;PMS5003;56232;53.384;-2.732;2022-12-10T08:41:32;28;27;
69123;PMS5003;56232;53.384;-2.732;2022-12-10T08:43:58;25;22;
69123;PMS5003;56232;53.384;-2.732;2022-12-10T08:46:23;15;15;
69123;PMS5003;56232;53.384;-2.732;2022-12-10T08:48:49;22;19;
69123;PMS5003;56232;53.384;-2.732;2022-12-10T08:51:16;14;14;
69123;PMS5003;56232;53.384;-2.732;2022-12-10T08:53:41;14;14;
69123;PMS5003;56232;53.384;-2.732;2022-12-10T08:56:06;11;11;
69123;PMS5003;56232;53.384;-2.732;2022-12-10T08:58:31;30;28;
69123;PMS5003;56232;53.384;-2.732;2022-12-10T09:00:57;31;26;
69123;PMS5003;56232;53.384;-2.732;2022-12-10T09:03:22;16;16;
69123;PMS5003;56232;53.384;-2.732;2022-12-10T09:05:47;37;30;
69123;PMS5003;56232;53.384;-2.732;2022-12-10T09:08:13;25;22;
69123;PMS5003;56232;53.384;-2.732;2022-12-10T09:10:39;17;16;
69123;PMS5003;56232;53.384;-2.732;2022-12-10T09:13:04;31;25;
69123;PMS5003;56232;53.384;-2.732;2022-12-10T09:15:30;35;32;
69123;PMS5003;56232;53.384;-2.732;2022-12-10T09:17:55;33;30;
69123;PMS5003;56232;53.384;-2.732;2022-12-10T09:20:21;90;68;
69123;PMS5003;56232;53.384;-2.732;2022-12-10T09:22:46;52;41;
69123;PMS5003;56232;53.384;-2.732;2022-12-10T09:25:16;46;40;
69123;PMS5003;56232;53.384;-2.732;2022-12-10T09:27:36;45;36;
69123;PMS5003;56232;53.384;-2.732;2022-12-10T09:30:02;46;36;
69123;PMS5003;56232;53.384;-2.732;2022-12-10T09:32:27;43;33;
69123;PMS5003;56232;53.384;-2.732;2022-12-10T09:34:52;20;17;
69123;PMS5003;56232;53.384;-2.732;2022-12-10T09:37:18;22;17;
69123;PMS5003;56232;53.384;-2.732;2022-12-10T09:39:44;21;21;
69123;PMS5003;56232;53.384;-2.732;2022-12-10T09:42:14;27;26;
69123;PMS5003;56232;53.384;-2.732;2022-12-10T09:44:39;44;37;
69123;PMS5003;56232;53.384;-2.732;2022-12-10T09:47:02;18;17;
69123;PMS5003;56232;53.384;-2.732;2022-12-10T09:49:30;14;14;
69123;PMS5003;56232;53.384;-2.732;2022-12-10T09:51:53;16;15;
69123;PMS5003;56232;53.384;-2.732;2022-12-10T09:54:19;49;36;
69123;PMS5003;56232;53.384;-2.732;2022-12-10T09:56:44;43;39;
69123;PMS5003;56232;53.384;-2.732;2022-12-10T09:59:11;87;74;
69123;PMS5003;56232;53.384;-2.732;2022-12-10T10:01:34;111;88;
69123;PMS5003;56232;53.384;-2.732;2022-12-10T10:03:59;38;33;
69123;PMS5003;56232;53.384;-2.732;2022-12-10T10:06:26;29;28;
69123;PMS5003;56232;53.384;-2.732;2022-12-10T10:08:51;55;48;
69123;PMS5003;56232;53.384;-2.732;2022-12-10T10:11:17;41;34;
69123;PMS5003;56232;53.384;-2.732;2022-12-10T10:13:43;30;26;
69123;PMS5003;56232;53.384;-2.732;2022-12-10T10:16:13;72;66;
69123;PMS5003;56232;53.384;-2.732;2022-12-10T10:18:34;115;107;
69123;PMS5003;56232;53.384;-2.732;2022-12-10T10:20:58;45;42;
69123;PMS5003;56232;53.384;-2.732;2022-12-10T10:23:24;26;24;
69123;PMS5003;56232;53.384;-2.732;2022-12-10T10:25:49;19;19;
69123;PMS5003;56232;53.384;-2.732;2022-12-10T10:28:21;28;27;
69123;PMS5003;56232;53.384;-2.732;2022-12-10T10:30:41;24;22;
69123;PMS5003;56232;53.384;-2.732;2022-12-10T10:33:08;23;20;
69123;PMS5003;56232;53.384;-2.732;2022-12-10T10:35:32;52;42;
69123;PMS5003;56232;53.384;-2.732;2022-12-10T10:37:58;27;27;
69123;PMS5003;56232;53.384;-2.732;2022-12-10T10:40:22;25;23;
69123;PMS5003;56232;53.384;-2.732;2022-12-10T10:42:47;16;15;
69123;PMS5003;56232;53.384;-2.732;2022-12-10T10:47:39;30;23;
69123;PMS5003;56232;53.384;-2.732;2022-12-10T10:50:05;87;64;
69123;PMS5003;56232;53.384;-2.732;2022-12-10T10:52:32;110;80;
69123;PMS5003;56232;53.384;-2.732;2022-12-10T10:54:55;93;71;
69123;PMS5003;56232;53.384;-2.732;2022-12-10T10:57:22;79;69;
69123;PMS5003;56232;53.384;-2.732;2022-12-10T10:59:46;66;60;
69123;PMS5003;56232;53.384;-2.732;2022-12-10T11:02:17;100;77;
69123;PMS5003;56232;53.384;-2.732;2022-12-10T11:04:43;106;89;
69123;PMS5003;56232;53.384;-2.732;2022-12-10T11:07:04;104;82;
69123;PMS5003;56232;53.384;-2.732;2022-12-10T11:09:29;76;66;
69123;PMS5003;56232;53.384;-2.732;2022-12-10T11:11:57;96;79;
69123;PMS5003;56232;53.384;-2.732;2022-12-10T11:14:23;84;68;
69123;PMS5003;56232;53.384;-2.732;2022-12-10T11:16:45;77;61;
69123;PMS5003;56232;53.384;-2.732;2022-12-10T11:21:36;61;55;
69123;PMS5003;56232;53.384;-2.732;2022-12-10T11:24:04;54;49;
69123;PMS5003;56232;53.384;-2.732;2022-12-10T11:26:31;54;42;
69123;PMS5003;56232;53.384;-2.732;2022-12-10T11:28:56;43;39;
69123;PMS5003;56232;53.384;-2.732;2022-12-10T11:31:21;51;46;
69123;PMS5003;56232;53.384;-2.732;2022-12-10T11:33:44;30;26;
69123;PMS5003;56232;53.384;-2.732;2022-12-10T11:36:11;26;25;
69123;PMS5003;56232;53.384;-2.732;2022-12-10T11:38:36;28;28;
69123;PMS5003;56232;53.384;-2.732;2022-12-10T11:41:01;24;22;
69123;PMS5003;56232;53.384;-2.732;2022-12-10T11:43:29;22;22;
69123;PMS5003;56232;53.384;-2.732;2022-12-10T11:45:52;20;20;
69123;PMS5003;56232;53.384;-2.732;2022-12-10T11:48:17;22;21;
69123;PMS5003;56232;53.384;-2.732;2022-12-10T11:50:41;24;21;
69123;PMS5003;56232;53.384;-2.732;2022-12-10T11:53:10;25;23;
69123;PMS5003;56232;53.384;-2.732;2022-12-10T11:55:33;31;26;
69123;PMS5003;56232;53.384;-2.732;2022-12-10T11:58:01;21;21;
69123;PMS5003;56232;53.384;-2.732;2022-12-10T12:00:23;21;20;
69123;PMS5003;56232;53.384;-2.732;2022-12-10T12:02:55;25;19;
69123;PMS5003;56232;53.384;-2.732;2022-12-10T12:05:19;19;18;
69123;PMS5003;56232;53.384;-2.732;2022-12-10T12:07:40;16;16;
69123;PMS5003;56232;53.384;-2.732;2022-12-10T12:10:11;15;15;
69123;PMS5003;56232;53.384;-2.732;2022-12-10T12:12:32;16;15;
69123;PMS5003;56232;53.384;-2.732;2022-12-10T12:14:56;14;14;
69123;PMS5003;56232;53.384;-2.732;2022-12-10T12:17:21;16;15;
69123;PMS5003;56232;53.384;-2.732;2022-12-10T12:19:47;15;15;
69123;PMS5003;56232;53.384;-2.732;2022-12-10T12:22:14;15;14;
69123;PMS5003;56232;53.384;-2.732;2022-12-10T12:24:38;21;20;
69123;PMS5003;56232;53.384;-2.732;2022-12-10T12:27:06;16;16;
69123;PMS5003;56232;53.384;-2.732;2022-12-10T12:29:29;18;18;
69123;PMS5003;56232;53.384;-2.732;2022-12-10T12:31:56;17;16;
69123;PMS5003;56232;53.384;-2.732;2022-12-10T12:34:21;15;14;
69123;PMS5003;56232;53.384;-2.732;2022-12-10T12:36:45;31;30;
69123;PMS5003;56232;53.384;-2.732;2022-12-10T12:39:13;14;12;
69123;PMS5003;56232;53.384;-2.732;2022-12-10T12:41:40;13;13;
69123;PMS5003;56232;53.384;-2.732;2022-12-10T12:44:04;21;19;
69123;PMS5003;56232;53.384;-2.732;2022-12-10T12:46:29;15;15;
69123;PMS5003;56232;53.384;-2.732;2022-12-10T12:48:55;13;11;
69123;PMS5003;56232;53.384;-2.732;2022-12-10T12:51:21;10;9;
69123;PMS5003;56232;53.384;-2.732;2022-12-10T12:53:45;8;7;
69123;PMS5003;56232;53.384;-2.732;2022-12-10T12:56:12;8;8;
69123;PMS5003;56232;53.384;-2.732;2022-12-10T12:58:38;6;6;
69123;PMS5003;56232;53.384;-2.732;2022-12-10T13:01:05;9;7;
69123;PMS5003;56232;53.384;-2.732;2022-12-10T13:03:29;6;6;
69123;PMS5003;56232;53.384;-2.732;2022-12-10T13:05:52;6;4;
69123;PMS5003;56232;53.384;-2.732;2022-12-10T13:10:43;7;7;
69123;PMS5003;56232;53.384;-2.732;2022-12-10T13:15:35;6;6;
69123;PMS5003;56232;53.384;-2.732;2022-12-10T13:18:01;6;5;
69123;PMS5003;56232;53.384;-2.732;2022-12-10T13:20:29;4;4;
69123;PMS5003;56232;53.384;-2.732;2022-12-10T13:22:54;6;6;
69123;PMS5003;56232;53.384;-2.732;2022-12-10T13:25:16;5;5;
69123;PMS5003;56232;53.384;-2.732;2022-12-10T13:27:42;14;13;
69123;PMS5003;56232;53.384;-2.732;2022-12-10T13:37:27;8;8;
69123;PMS5003;56232;53.384;-2.732;2022-12-10T13:39:52;7;7;
69123;PMS5003;56232;53.384;-2.732;2022-12-10T13:49:31;13;13;
69123;PMS5003;56232;53.384;-2.732;2022-12-10T13:51:58;14;13;
69123;PMS5003;56232;53.384;-2.732;2022-12-10T13:56:48;33;29;
69123;PMS5003;56232;53.384;-2.732;2022-12-10T13:59:15;30;28;
69123;PMS5003;56232;53.384;-2.732;2022-12-10T14:01:39;35;34;
69123;PMS5003;56232;53.384;-2.732;2022-12-10T14:04:07;30;28;
69123;PMS5003;56232;53.384;-2.732;2022-12-10T14:06:32;20;18;
69123;PMS5003;56232;53.384;-2.732;2022-12-10T14:08:57;25;24;
69123;PMS5003;56232;53.384;-2.732;2022-12-10T14:11:20;29;29;
69123;PMS5003;56232;53.384;-2.732;2022-12-10T14:13:46;93;87;
69123;PMS5003;56232;53.384;-2.732;2022-12-10T14:16:11;37;33;
69123;PMS5003;56232;53.384;-2.732;2022-12-10T14:18:35;35;31;
69123;PMS5003;56232;53.384;-2.732;2022-12-10T14:21:02;32;30;
69123;PMS5003;56232;53.384;-2.732;2022-12-10T14:23:27;51;45;
69123;PMS5003;56232;53.384;-2.732;2022-12-10T14:25:52;32;27;
69123;PMS5003;56232;53.384;-2.732;2022-12-10T14:28:18;21;19;
69123;PMS5003;56232;53.384;-2.732;2022-12-10T14:30:45;21;19;
69123;PMS5003;56232;53.384;-2.732;2022-12-10T14:33:08;11;11;
69123;PMS5003;56232;53.384;-2.732;2022-12-10T14:35:34;12;12;
69123;PMS5003;56232;53.384;-2.732;2022-12-10T14:38:00;9;9;
69123;PMS5003;56232;53.384;-2.732;2022-12-10T14:40:27;13;12;
69123;PMS5003;56232;53.384;-2.732;2022-12-10T14:42:52;16;14;
69123;PMS5003;56232;53.384;-2.732;2022-12-10T14:45:18;17;17;
69123;PMS5003;56232;53.384;-2.732;2022-12-10T14:47:44;25;18;
69123;PMS5003;56232;53.384;-2.732;2022-12-10T14:50:09;18;17;
69123;PMS5003;56232;53.384;-2.732;2022-12-10T14:52:39;20;19;
69123;PMS5003;56232;53.384;-2.732;2022-12-10T14:55:00;19;19;
69123;PMS5003;56232;53.384;-2.732;2022-12-10T14:57:26;27;20;
69123;PMS5003;56232;53.384;-2.732;2022-12-10T14:59:53;20;20;
69123;PMS5003;56232;53.384;-2.732;2022-12-10T15:02:18;18;18;
69123;PMS5003;56232;53.384;-2.732;2022-12-10T15:04:43;21;21;
69123;PMS5003;56232;53.384;-2.732;2022-12-10T15:07:07;31;30;
69123;PMS5003;56232;53.384;-2.732;2022-12-10T15:09:32;52;44;
69123;PMS5003;56232;53.384;-2.732;2022-12-10T15:11:58;33;31;
69123;PMS5003;56232;53.384;-2.732;2022-12-10T15:14:23;29;28;
69123;PMS5003;56232;53.384;-2.732;2022-12-10T15:16:48;35;29;
69123;PMS5003;56232;53.384;-2.732;2022-12-10T15:19:17;31;26;
69123;PMS5003;56232;53.384;-2.732;2022-12-10T15:21:41;29;28;
69123;PMS5003;56232;53.384;-2.732;2022-12-10T15:24:07;29;26;
69123;PMS5003;56232;53.384;-2.732;2022-12-10T15:26:32;25;21;
69123;PMS5003;56232;53.384;-2.732;2022-12-10T15:31:27;23;21;
69123;PMS5003;56232;53.384;-2.732;2022-12-10T15:33:48;33;28;
69123;PMS5003;56232;53.384;-2.732;2022-12-10T15:36:16;23;19;
69123;PMS5003;56232;53.384;-2.732;2022-12-10T15:38:38;26;25;
69123;PMS5003;56232;53.384;-2.732;2022-12-10T15:43:29;28;28;
69123;PMS5003;56232;53.384;-2.732;2022-12-10T15:45:55;26;25;
69123;PMS5003;56232;53.384;-2.732;2022-12-10T15:48:20;40;33;
69123;PMS5003;56232;53.384;-2.732;2022-12-10T15:50:46;35;33;
69123;PMS5003;56232;53.384;-2.732;2022-12-10T15:53:12;41;35;
69123;PMS5003;56232;53.384;-2.732;2022-12-10T15:55:37;46;40;
69123;PMS5003;56232;53.384;-2.732;2022-12-10T15:58:02;35;34;
69123;PMS5003;56232;53.384;-2.732;2022-12-10T16:00:27;34;32;
69123;PMS5003;56232;53.384;-2.732;2022-12-10T16:02:54;33;32;
69123;PMS5003;56232;53.384;-2.732;2022-12-10T16:05:19;45;38;
69123;PMS5003;56232;53.384;-2.732;2022-12-10T16:07:45;33;32;
69123;PMS5003;56232;53.384;-2.732;2022-12-10T16:10:10;35;34;
69123;PMS5003;56232;53.384;-2.732;2022-12-10T16:12:40;41;35;
69123;PMS5003;56232;53.384;-2.732;2022-12-10T16:15:00;44;37;
69123;PMS5003;56232;53.384;-2.732;2022-12-10T16:17:26;40;38;
69123;PMS5003;56232;53.384;-2.732;2022-12-10T16:19:51;47;41;
69123;PMS5003;56232;53.384;-2.732;2022-12-10T16:22:16;56;51;
69123;PMS5003;56232;53.384;-2.732;2022-12-10T16:24:42;47;44;
69123;PMS5003;56232;53.384;-2.732;2022-12-10T16:27:10;44;43;
69123;PMS5003;56232;53.384;-2.732;2022-12-10T16:29:32;42;38;
69123;PMS5003;56232;53.384;-2.732;2022-12-10T16:31:57;35;33;